Time,TemperatureF,DewpointF,PressureIn,WindDirection,WindDirectionDegrees,WindSpeedMPH,WindSpeedGustMPH,Humidity,HourlyPrecipIn,Conditions,Clouds,dailyrainin,SoftwareType,DateUTC
2013-07-06 00:06:00,66.0,65.7,30.19,SSE,157,0.0,-999.0,99,-99.99,,,0.00,Acu-Link.com,2013-07-06 04:06:00,
2013-07-06 01:06:00,65.8,65.5,30.20,SSE,157,0.0,-999.0,99,-99.99,,,0.00,Acu-Link.com,2013-07-06 05:06:00,
2013-07-06 02:42:00,65.5,65.2,30.19,NW,315,3.7,-999.0,99,-99.99,,,0.00,Acu-Link.com,2013-07-06 06:42:00,
2013-07-06 02:57:00,65.7,65.4,30.18,West,270,0.0,-999.0,99,-99.99,,,0.00,Acu-Link.com,2013-07-06 06:57:00,
2013-07-06 03:13:00,65.3,65.0,30.19,ESE,112,0.0,-999.0,99,-99.99,,,0.00,Acu-Link.com,2013-07-06 07:13:00,
2013-07-06 04:44:00,64.4,64.1,30.20,SE,135,1.7,-999.0,99,-99.99,,,0.00,Acu-Link.com,2013-07-06 08:44:00,
2013-07-06 04:59:00,64.4,64.1,30.20,SE,135,0.0,-999.0,99,-99.99,,,0.00,Acu-Link.com,2013-07-06 08:59:00,
2013-07-06 05:15:00,64.2,63.9,30.19,SE,135,0.0,-999.0,99,-99.99,,,0.00,Acu-Link.com,2013-07-06 09:15:00,
2013-07-06 05:31:00,64.2,63.9,30.20,SE,135,0.0,-999.0,99,-99.99,,,0.00,Acu-Link.com,2013-07-06 09:31:00,
2013-07-06 05:49:00,64.2,63.9,30.20,ESE,112,0.0,-999.0,99,-99.99,,,0.00,Acu-Link.com,2013-07-06 09:49:00,
2013-07-06 06:04:00,64.2,63.9,30.20,SSE,157,0.0,-999.0,99,-99.99,,,0.00,Acu-Link.com,2013-07-06 10:04:00,
2013-07-06 06:20:00,64.2,63.9,30.20,East,90,0.0,-999.0,99,-99.99,,,0.00,Acu-Link.com,2013-07-06 10:20:00,
2013-07-06 06:35:00,64.2,63.9,30.20,ESE,112,0.0,-999.0,99,-99.99,,,0.00,Acu-Link.com,2013-07-06 10:35:00,
2013-07-06 06:50:00,64.2,63.9,30.20,East,90,0.0,-999.0,99,-99.99,,,0.00,Acu-Link.com,2013-07-06 10:50:00,
2013-07-06 07:05:00,64.4,64.1,30.21,SE,135,0.0,-999.0,99,-99.99,,,0.00,Acu-Link.com,2013-07-06 11:05:00,
2013-07-06 07:20:00,64.9,64.6,30.21,NE,45,0.0,-999.0,99,-99.99,,,0.01,Acu-Link.com,2013-07-06 11:20:00,
2013-07-06 07:36:00,65.5,65.2,30.21,ESE,112,0.0,-999.0,99,-99.99,,,0.01,Acu-Link.com,2013-07-06 11:36:00,
2013-07-06 07:51:00,66.0,65.7,30.21,ESE,112,0.0,-999.0,99,-99.99,,,0.01,Acu-Link.com,2013-07-06 11:51:00,
2013-07-06 08:10:00,66.7,66.4,30.21,ESE,112,1.7,-999.0,99,-99.99,,,0.01,Acu-Link.com,2013-07-06 12:10:00,
2013-07-06 08:25:00,67.8,67.5,30.23,West,270,0.0,-999.0,99,-99.99,,,0.01,Acu-Link.com,2013-07-06 12:25:00,
2013-07-06 08:42:00,69.1,68.8,30.23,NE,45,1.7,-999.0,99,-99.99,,,0.01,Acu-Link.com,2013-07-06 12:42:00,
2013-07-06 09:16:00,73.6,72.7,30.23,ENE,67,2.7,-999.0,97,-99.99,,,0.01,Acu-Link.com,2013-07-06 13:16:00,
2013-07-06 14:13:00,82.9,73.3,30.16,SW,225,1.1,-999.0,73,-99.99,,,0.01,Acu-Link.com,2013-07-06 18:13:00,
2013-07-06 15:14:00,85.6,73.8,30.15,WSW,247,2.7,-999.0,68,-99.99,,,0.01,Acu-Link.com,2013-07-06 19:14:00,
2013-07-06 15:29:00,82.9,73.3,30.14,WNW,292,2.7,-999.0,73,-99.99,,,0.01,Acu-Link.com,2013-07-06 19:29:00,
2013-07-06 15:45:00,85.5,75.0,30.13,SSE,157,2.7,-999.0,71,-99.99,,,0.01,Acu-Link.com,2013-07-06 19:45:00,
2013-07-06 16:16:00,84.7,74.6,30.12,West,270,5.8,-999.0,72,-99.99,,,0.01,Acu-Link.com,2013-07-06 20:16:00,
2013-07-06 16:32:00,85.6,73.8,30.12,NNE,22,3.7,-999.0,68,-99.99,,,0.01,Acu-Link.com,2013-07-06 20:32:00,
2013-07-06 16:47:00,83.1,74.7,30.12,NNW,337,2.7,-999.0,76,-99.99,,,0.01,Acu-Link.com,2013-07-06 20:47:00,
2013-07-06 17:02:00,85.5,76.2,30.11,West,270,3.7,-999.0,74,-99.99,,,0.01,Acu-Link.com,2013-07-06 21:02:00,
2013-07-06 17:17:00,85.1,75.4,30.11,NW,315,2.2,-999.0,73,-99.99,,,0.01,Acu-Link.com,2013-07-06 21:17:00,
2013-07-06 17:33:00,88.0,76.1,30.11,ESE,112,2.7,-999.0,68,-99.99,,,0.01,Acu-Link.com,2013-07-06 21:33:00,
2013-07-06 17:48:00,86.9,75.5,30.10,West,270,3.7,-999.0,69,-99.99,,,0.01,Acu-Link.com,2013-07-06 21:48:00,
2013-07-06 18:20:00,88.9,75.1,30.10,ESE,112,4.2,-999.0,64,-99.99,,,0.01,Acu-Link.com,2013-07-06 22:20:00,
2013-07-06 18:35:00,87.8,74.5,30.09,South,180,1.7,-999.0,65,-99.99,,,0.01,Acu-Link.com,2013-07-06 22:35:00,
2013-07-06 19:12:00,86.0,75.0,30.08,North,0,3.2,-999.0,70,-99.99,,,0.01,Acu-Link.com,2013-07-06 23:12:00,
2013-07-06 19:30:00,84.2,74.6,30.09,West,270,1.7,-999.0,73,-99.99,,,0.01,Acu-Link.com,2013-07-06 23:30:00,
2013-07-06 20:02:00,82.0,73.7,30.10,East,90,0.0,-999.0,76,-99.99,,,0.01,Acu-Link.com,2013-07-07 00:02:00,
2013-07-06 20:50:00,76.1,72.6,30.10,NNE,22,1.1,-999.0,89,-99.99,,,0.01,Acu-Link.com,2013-07-07 00:50:00,
2013-07-06 21:07:00,74.8,72.0,30.10,ESE,112,1.1,-999.0,91,-99.99,,,0.01,Acu-Link.com,2013-07-07 01:07:00,
2013-07-06 22:24:00,72.7,69.9,30.14,ESE,112,2.7,-999.0,91,-99.99,,,0.01,Acu-Link.com,2013-07-07 02:24:00,
2013-07-06 22:39:00,72.1,70.0,30.13,SE,135,1.7,-999.0,93,-99.99,,,0.01,Acu-Link.com,2013-07-07 02:39:00,
2013-07-06 22:54:00,72.7,69.6,30.13,NW,315,2.7,-999.0,90,-99.99,,,0.01,Acu-Link.com,2013-07-07 02:54:00,
2013-07-06 23:10:00,73.0,70.2,30.13,SSW,202,1.1,-999.0,91,-99.99,,,0.01,Acu-Link.com,2013-07-07 03:10:00,